Time;durP1;ratioP1;P1;durP2;ratioP2;P2;SDS_P1;SDS_P2;PMS_P1;PMS_P2;Temp;Humidity;BMP_temperature;BMP_pressure;BME280_temperature;BME280_humidity;BME280_pressure;Samples;Min_cycle;Max_cycle;Signal;HPM_P1;HPM_P2
2021/07/29 00:00:26;;;;;;;;;;;;;;;23.16;68.80;96494.94;222545;261;99549;-54
2021/07/29 00:01:28;;;;;;;;;;;;;;;23.22;68.53;96491.34;222547;261;98966;-52
2021/07/29 00:02:29;;;;;;;;;;;;;;;23.20;68.78;96488.14;223256;261;98949;-47
2021/07/29 00:03:30;;;;;;;;;;;;;;;23.21;68.79;96484.21;222234;261;97956;-49
2021/07/29 00:04:32;;;;;;;;;;;;;;;23.26;68.57;96492.22;221214;263;98008;-46
2021/07/29 00:05:35;;;;;;;;;;;;;;;23.21;68.61;96491.92;223082;261;149504;-49
2021/07/29 00:06:36;;;;;;;;;;;;;;;23.26;68.54;96483.93;223370;260;176735;-48
2021/07/29 00:07:37;;;;;;;;;;;;;;;23.34;68.42;96489.86;223074;260;98041;-46
2021/07/29 00:08:39;;;;;;;;;;;;;;;23.26;68.42;96487.49;222317;261;98035;-49
2021/07/29 00:09:40;;;;;;;;;;;;;;;23.24;68.61;96486.25;222901;261;98015;-50
2021/07/29 00:10:41;;;;;;;;;;;;;;;23.15;69.56;96483.66;223167;261;97991;-50
2021/07/29 00:11:43;;;;;;;;;;;;;;;23.11;69.26;96483.36;223400;261;100260;-49
2021/07/29 00:12:44;;;;;;;;;;;;;;;23.18;68.87;96477.44;222862;261;178431;-47
2021/07/29 00:13:45;;;;;;;;;;;;;;;23.28;68.66;96481.60;222603;261;175636;-50
2021/07/29 00:14:50;;;;;;;;;;;;;;;23.31;68.53;96483.67;222678;261;98934;-46
2021/07/29 00:15:50;;;;;;;;;;;;;;;23.04;70.74;96482.02;221786;260;67575;-47
2021/07/29 00:16:56;;;;;;;;;;;;;;;23.06;69.13;96489.36;222675;261;98923;-48
2021/07/29 00:19:09;;;;;;;;;;;;;;;23.10;70.33;96475.66;222850;261;234289;-52
2021/07/29 00:20:07;;;;;;;;;;;;;;;23.02;71.12;96481.57;223012;260;147644;-50
2021/07/29 00:21:08;;;;;;;;;;;;;;;23.06;69.12;96481.07;222657;261;174576;-50
2021/07/29 00:22:09;;;;;;;;;;;;;;;23.13;69.11;96479.08;223095;261;98010;-49
2021/07/29 00:23:11;;;;;;;;;;;;;;;23.18;68.89;96479.37;222065;262;98990;-55
2021/07/29 00:24:12;;;;;;;;;;;;;;;23.20;68.77;96477.88;222132;262;100592;-47
2021/07/29 00:25:14;;;;;;;;;;;;;;;23.17;68.86;96484.10;222785;260;97965;-52
2021/07/29 00:26:16;;;;;;;;;;;;;;;23.16;68.92;96475.59;221655;262;262740;-47
2021/07/29 00:27:17;;;;;;;;;;;;;;;23.16;68.90;96478.36;222294;260;177080;-53
2021/07/29 00:28:18;;;;;;;;;;;;;;;23.13;68.96;96482.42;222868;260;174661;-50
2021/07/29 00:29:20;;;;;;;;;;;;;;;23.16;68.85;96484.47;223158;260;98959;-48
2021/07/29 00:30:21;;;;;;;;;;;;;;;23.15;68.75;96480.09;222864;261;98934;-48
2021/07/29 00:31:24;;;;;;;;;;;;;;;23.17;68.78;96484.10;222595;261;98949;-52
2021/07/29 00:32:26;;;;;;;;;;;;;;;23.13;68.85;96477.70;222238;261;150053;-60
2021/07/29 00:33:27;;;;;;;;;;;;;;;23.16;68.97;96478.94;221704;262;264293;-60
2021/07/29 00:34:28;;;;;;;;;;;;;;;23.16;69.03;96478.94;222381;261;177180;-61
2021/07/29 00:35:30;;;;;;;;;;;;;;;23.17;68.69;96472.25;222758;260;175323;-56
2021/07/29 00:36:32;;;;;;;;;;;;;;;23.19;68.52;96471.33;222678;261;98938;-46
2021/07/29 00:37:34;;;;;;;;;;;;;;;22.96;70.13;96480.22;223188;261;72596;-47
2021/07/29 00:38:35;;;;;;;;;;;;;;;22.96;71.71;96476.07;222319;261;98970;-53
2021/07/29 00:39:37;;;;;;;;;;;;;;;23.00;69.59;96474.80;222818;261;174210;-46
2021/07/29 00:40:38;;;;;;;;;;;;;;;23.00;71.91;96481.13;222056;261;264810;-51
2021/07/29 00:41:39;;;;;;;;;;;;;;;23.04;69.14;96483.39;222515;261;178107;-50
2021/07/29 00:42:41;;;;;;;;;;;;;;;23.07;69.02;96486.02;222515;261;176099;-51
2021/07/29 00:43:42;;;;;;;;;;;;;;;23.16;68.80;96477.55;222569;261;100322;-50
2021/07/29 00:44:43;;;;;;;;;;;;;;;23.17;68.87;96480.54;223390;260;98889;-54
2021/07/29 00:45:45;;;;;;;;;;;;;;;23.13;69.17;96475.52;222606;261;98937;-59
2021/07/29 00:46:47;;;;;;;;;;;;;;;23.34;68.60;96469.92;223502;260;98962;-72
2021/07/29 00:47:49;;;;;;;;;;;;;;;23.51;68.13;96476.25;222130;261;265477;-71
2021/07/29 00:48:51;;;;;;;;;;;;;;;23.55;67.74;96471.59;223420;260;177732;-71
2021/07/29 00:49:53;;;;;;;;;;;;;;;23.52;67.75;96477.86;221653;260;175436;-68
2021/07/29 00:50:54;;;;;;;;;;;;;;;23.53;67.65;96473.92;223005;260;98950;-68
2021/07/29 00:51:56;;;;;;;;;;;;;;;23.56;67.65;96476.77;222943;260;99484;-67
2021/07/29 00:52:57;;;;;;;;;;;;;;;23.56;67.59;96474.58;222686;261;100307;-69
2021/07/29 00:53:58;;;;;;;;;;;;;;;23.54;67.59;96470.80;223505;260;99441;-66
2021/07/29 00:55:02;;;;;;;;;;;;;;;23.52;67.60;96474.50;222679;261;98938;-69
2021/07/29 00:56:04;;;;;;;;;;;;;;;23.58;67.81;96470.87;221986;261;178956;-64
2021/07/29 00:57:05;;;;;;;;;;;;;;;23.82;67.20;96470.68;223058;260;176019;-60
2021/07/29 00:58:06;;;;;;;;;;;;;;;24.03;66.46;96464.81;223734;259;98972;-67
2021/07/29 00:59:08;;;;;;;;;;;;;;;24.06;66.53;96471.00;222808;260;98949;-71
2021/07/29 01:00:09;;;;;;;;;;;;;;;24.17;66.15;96469.84;221666;262;97968;-69
2021/07/29 01:01:10;;;;;;;;;;;;;;;24.08;66.34;96470.05;222931;261;98019;-64
2021/07/29 01:02:12;;;;;;;;;;;;;;;24.07;67.30;96475.95;222798;260;97991;-66
2021/07/29 01:03:13;;;;;;;;;;;;;;;24.09;66.52;96474.41;222482;261;177176;-65
2021/07/29 01:04:14;;;;;;;;;;;;;;;24.10;66.41;96473.25;222033;261;175466;-67
2021/07/29 01:05:16;;;;;;;;;;;;;;;24.15;66.16;96472.97;223018;260;98945;-66
2021/07/29 01:06:17;;;;;;;;;;;;;;;24.16;66.02;96466.27;221968;262;99606;-65
2021/07/29 01:07:20;;;;;;;;;;;;;;;24.15;65.90;96467.44;222308;261;71530;-67
2021/07/29 01:08:21;;;;;;;;;;;;;;;24.16;65.86;96467.65;222999;260;173863;-66
2021/07/29 01:09:23;;;;;;;;;;;;;;;24.13;65.96;96464.20;221721;262;265725;-66
2021/07/29 01:10:24;;;;;;;;;;;;;;;24.14;65.88;96463.06;222952;260;177095;-67
2021/07/29 01:11:25;;;;;;;;;;;;;;;24.20;65.93;96463.56;221908;261;175502;-66
2021/07/29 01:12:27;;;;;;;;;;;;;;;24.14;65.88;96461.68;222451;261;98852;-69
2021/07/29 01:13:28;;;;;;;;;;;;;;;24.17;65.94;96466.48;222915;261;98944;-69
2021/07/29 01:14:29;;;;;;;;;;;;;;;24.19;65.86;96464.14;222691;262;98946;-69
2021/07/29 01:15:31;;;;;;;;;;;;;;;24.23;65.69;96460.85;222511;262;98946;-69
2021/07/29 01:16:32;;;;;;;;;;;;;;;24.25;65.70;96457.75;223015;261;99180;-67
2021/07/29 01:17:33;;;;;;;;;;;;;;;24.28;65.64;96462.55;223042;261;176021;-69
2021/07/29 01:18:35;;;;;;;;;;;;;;;24.23;65.64;96458.09;222901;261;174402;-66
2021/07/29 01:19:37;;;;;;;;;;;;;;;24.19;65.74;96458.61;222534;262;98005;-65
2021/07/29 01:20:39;;;;;;;;;;;;;;;24.21;65.69;96456.27;222649;262;63903;-63
2021/07/29 01:21:40;;;;;;;;;;;;;;;24.23;65.78;96460.05;222032;262;97988;-63
2021/07/29 01:22:42;;;;;;;;;;;;;;;24.21;65.91;96454.89;220971;263;172653;-62
2021/07/29 01:23:44;;;;;;;;;;;;;;;24.20;65.75;96457.44;222076;261;263302;-67
2021/07/29 01:24:46;;;;;;;;;;;;;;;24.02;68.33;96456.26;223209;260;148731;-67
2021/07/29 01:25:47;;;;;;;;;;;;;;;24.10;66.29;96459.41;223273;260;175754;-70
2021/07/29 01:26:49;;;;;;;;;;;;;;;24.10;66.13;96458.60;220963;263;97964;-71
2021/07/29 01:27:50;;;;;;;;;;;;;;;24.14;66.07;96456.14;222586;260;97987;-73
2021/07/29 01:28:51;;;;;;;;;;;;;;;24.21;65.83;96461.81;222691;261;98011;-72
2021/07/29 01:29:52;;;;;;;;;;;;;;;24.10;66.82;96458.02;223507;260;97053;-70
2021/07/29 01:30:54;;;;;;;;;;;;;;;24.14;65.92;96456.73;223416;261;98954;-69
2021/07/29 01:31:55;;;;;;;;;;;;;;;24.20;65.63;96454.67;223435;260;178022;-67
2021/07/29 01:32:56;;;;;;;;;;;;;;;24.19;65.56;96455.84;221865;261;175925;-68
2021/07/29 01:33:58;;;;;;;;;;;;;;;24.13;66.48;96461.44;223204;260;98908;-67
2021/07/29 01:34:59;;;;;;;;;;;;;;;24.17;65.79;96458.77;222412;261;97906;-71
2021/07/29 01:36:01;;;;;;;;;;;;;;;24.16;65.77;96452.42;223526;260;97766;-70
2021/07/29 01:37:02;;;;;;;;;;;;;;;24.18;67.98;96455.63;222515;261;99219;-66
2021/07/29 01:38:03;;;;;;;;;;;;;;;24.12;65.93;96443.22;222938;261;98019;-66
2021/07/29 01:39:05;;;;;;;;;;;;;;;24.10;65.75;96446.14;223141;261;177184;-66
2021/07/29 01:40:06;;;;;;;;;;;;;;;24.13;65.72;96446.79;223035;260;175274;-66
2021/07/29 01:41:07;;;;;;;;;;;;;;;24.12;65.65;96450.73;222208;261;99437;-69
2021/07/29 01:42:09;;;;;;;;;;;;;;;24.06;65.85;96447.47;223103;260;98996;-64
2021/07/29 01:43:10;;;;;;;;;;;;;;;24.10;65.81;96450.30;222119;262;98949;-63
2021/07/29 01:44:11;;;;;;;;;;;;;;;24.09;65.96;96448.11;223114;260;98933;-64
2021/07/29 01:45:13;;;;;;;;;;;;;;;24.16;65.62;96447.47;222141;261;98877;-76
2021/07/29 01:46:14;;;;;;;;;;;;;;;24.12;65.80;96450.73;222990;260;177819;-80
2021/07/29 01:47:15;;;;;;;;;;;;;;;24.03;66.20;96448.75;221874;262;175285;-71
2021/07/29 01:48:16;;;;;;;;;;;;;;;23.86;67.33;96443.88;223354;260;97766;-73
2021/07/29 01:49:22;;;;;;;;;;;;;;;23.83;67.07;96446.58;222527;261;97995;-71
2021/07/29 01:50:21;;;;;;;;;;;;;;;23.90;66.42;96441.97;222567;261;67819;-69
2021/07/29 01:51:25;;;;;;;;;;;;;;;23.88;66.52;96444.31;223006;260;175355;-68
2021/07/29 01:52:26;;;;;;;;;;;;;;;23.87;66.49;96443.29;221707;262;262166;-69
2021/07/29 01:53:27;;;;;;;;;;;;;;;23.88;66.53;96444.89;221840;262;177154;-67
2021/07/29 01:54:29;;;;;;;;;;;;;;;23.88;66.49;96444.89;222330;262;175345;-67
2021/07/29 01:55:30;;;;;;;;;;;;;;;23.89;66.40;96444.52;222443;261;98937;-66
2021/07/29 01:56:31;;;;;;;;;;;;;;;23.95;66.33;96447.23;223119;261;98853;-66
2021/07/29 01:57:33;;;;;;;;;;;;;;;23.97;66.23;96444.10;223295;261;98891;-66
2021/07/29 01:58:34;;;;;;;;;;;;;;;23.96;66.29;96443.89;223022;261;98998;-66
2021/07/29 01:59:35;;;;;;;;;;;;;;;23.97;66.57;96443.30;222999;261;98845;-61
2021/07/29 02:00:37;;;;;;;;;;;;;;;23.93;66.70;96444.63;222548;261;177872;-63
2021/07/29 02:01:40;;;;;;;;;;;;;;;23.89;66.80;96444.52;222299;262;175235;-62
2021/07/29 02:02:41;;;;;;;;;;;;;;;24.00;66.42;96443.95;222411;260;63741;-63
2021/07/29 02:03:42;;;;;;;;;;;;;;;24.05;66.25;96445.86;222972;261;98859;-62
2021/07/29 02:04:44;;;;;;;;;;;;;;;24.12;66.13;96448.76;222234;261;98964;-60
2021/07/29 02:05:45;;;;;;;;;;;;;;;24.16;66.04;96446.88;222552;260;174506;-61
2021/07/29 02:06:46;;;;;;;;;;;;;;;24.17;65.85;96455.99;221397;260;263817;-61
2021/07/29 02:07:48;;;;;;;;;;;;;;;24.16;65.86;96446.88;222045;261;176920;-59
2021/07/29 02:08:49;;;;;;;;;;;;;;;24.20;65.73;96447.75;222262;261;174448;-62
2021/07/29 02:09:50;;;;;;;;;;;;;;;24.22;65.54;96442.64;222304;261;98115;-58
2021/07/29 02:10:52;;;;;;;;;;;;;;;24.24;65.66;96453.34;221959;262;98054;-61
2021/07/29 02:11:53;;;;;;;;;;;;;;;24.26;65.61;96447.47;222126;262;99029;-59
2021/07/29 02:12:54;;;;;;;;;;;;;;;24.24;65.53;96447.25;221922;262;99062;-61
2021/07/29 02:13:56;;;;;;;;;;;;;;;24.24;65.57;96452.80;222401;261;98858;-60
2021/07/29 02:14:57;;;;;;;;;;;;;;;24.22;65.63;96450.15;222062;261;177964;-60
2021/07/29 02:15:58;;;;;;;;;;;;;;;24.20;65.63;96451.10;222424;262;176295;-59
2021/07/29 02:17:00;;;;;;;;;;;;;;;24.20;65.52;96449.72;222505;262;98937;-60
2021/07/29 02:18:02;;;;;;;;;;;;;;;24.22;65.56;96450.15;223064;261;98945;-62
2021/07/29 02:19:03;;;;;;;;;;;;;;;24.21;65.84;96453.50;223309;261;98900;-61
2021/07/29 02:20:06;;;;;;;;;;;;;;;24.21;65.51;96454.08;222939;261;98965;-61
2021/07/29 02:21:08;;;;;;;;;;;;;;;24.23;65.38;96448.98;222239;262;264815;-59
2021/07/29 02:22:11;;;;;;;;;;;;;;;24.23;65.64;96451.16;222351;262;142538;-61
2021/07/29 02:23:12;;;;;;;;;;;;;;;24.21;65.49;96454.08;222891;260;175437;-60
2021/07/29 02:24:13;;;;;;;;;;;;;;;24.17;65.19;96451.25;222055;262;98949;-59
2021/07/29 02:25:15;;;;;;;;;;;;;;;24.18;65.47;96450.67;223167;260;98961;-61
2021/07/29 02:26:16;;;;;;;;;;;;;;;24.18;65.38;96458.39;223404;261;99438;-61
2021/07/29 02:27:18;;;;;;;;;;;;;;;24.12;65.43;96460.42;223263;260;98948;-60
2021/07/29 02:28:20;;;;;;;;;;;;;;;24.10;65.39;96463.55;222436;261;264014;-61
2021/07/29 02:29:21;;;;;;;;;;;;;;;24.04;65.20;96458.10;222575;261;177110;-61
2021/07/29 02:30:22;;;;;;;;;;;;;;;24.10;65.43;96456.63;222910;260;175443;-63
2021/07/29 02:31:24;;;;;;;;;;;;;;;24.06;65.42;96450.23;222953;260;98972;-61
2021/07/29 02:32:25;;;;;;;;;;;;;;;24.09;65.27;96457.80;222681;261;98944;-57
2021/07/29 02:34:58;;;;;;;;;;;;;;;23.97;65.25;96455.17;222564;261;136387;-59
2021/07/29 02:35:59;;;;;;;;;;;;;;;23.92;65.66;96454.06;222584;260;265097;-73
2021/07/29 02:37:01;;;;;;;;;;;;;;;23.92;65.99;96460.98;222044;261;177912;-61
2021/07/29 02:38:03;;;;;;;;;;;;;;;23.94;66.03;96454.53;222532;261;176719;-66
2021/07/29 02:39:04;;;;;;;;;;;;;;;23.82;66.03;96458.23;222617;261;98924;-73
2021/07/29 02:40:05;;;;;;;;;;;;;;;23.90;66.14;96457.78;222535;261;99131;-69
2021/07/29 02:41:07;;;;;;;;;;;;;;;23.93;66.06;96461.23;222962;261;98933;-71
2021/07/29 02:42:08;;;;;;;;;;;;;;;23.92;65.90;96460.40;223109;260;98925;-65
2021/07/29 02:43:09;;;;;;;;;;;;;;;23.94;65.80;96455.33;223407;260;98052;-66
2021/07/29 02:44:12;;;;;;;;;;;;;;;23.88;65.94;96457.34;222756;260;175969;-62
2021/07/29 02:45:15;;;;;;;;;;;;;;;23.85;66.13;96455.31;222571;260;140161;-68
2021/07/29 02:46:17;;;;;;;;;;;;;;;23.83;66.48;96452.11;223775;260;69763;-76
2021/07/29 02:47:18;;;;;;;;;;;;;;;23.83;66.23;96461.80;222063;261;99130;-75
2021/07/29 02:48:19;;;;;;;;;;;;;;;23.80;66.76;96457.77;223550;260;99002;-67
2021/07/29 02:49:21;;;;;;;;;;;;;;;23.83;66.41;96457.64;221781;260;174692;-66
2021/07/29 02:50:22;;;;;;;;;;;;;;;23.81;66.37;96457.98;222154;260;264655;-68
2021/07/29 02:51:23;;;;;;;;;;;;;;;23.80;66.20;96455.58;222894;260;177907;-65
2021/07/29 02:52:25;;;;;;;;;;;;;;;23.47;68.92;96455.41;222363;261;176142;-70
2021/07/29 02:53:32;;;;;;;;;;;;;;;23.38;71.10;96458.94;222035;261;97924;-67
2021/07/29 02:54:29;;;;;;;;;;;;;;;23.55;67.47;96457.18;222596;261;67281;-68
2021/07/29 02:55:30;;;;;;;;;;;;;;;23.64;66.92;96464.73;222669;261;99066;-71
2021/07/29 02:56:32;;;;;;;;;;;;;;;23.68;66.71;96464.00;223142;260;174495;-64
2021/07/29 02:57:35;;;;;;;;;;;;;;;23.66;66.87;96461.02;222536;261;264064;-64
2021/07/29 02:58:36;;;;;;;;;;;;;;;23.67;66.70;96463.20;222736;261;148933;-66
2021/07/29 02:59:37;;;;;;;;;;;;;;;23.72;66.52;96462.14;221997;260;176350;-67
2021/07/29 03:00:39;;;;;;;;;;;;;;;23.72;66.53;96464.91;222217;262;98950;-67
2021/07/29 03:01:40;;;;;;;;;;;;;;;23.70;66.13;96468.59;222401;261;98875;-58
2021/07/29 03:02:41;;;;;;;;;;;;;;;23.69;66.45;96470.55;222352;262;99052;-60
2021/07/29 03:03:43;;;;;;;;;;;;;;;23.74;66.50;96471.67;222875;260;99455;-60
2021/07/29 03:04:44;;;;;;;;;;;;;;;23.77;66.55;96472.91;222873;261;98869;-60
2021/07/29 03:05:46;;;;;;;;;;;;;;;23.80;66.60;96472.18;222454;261;177665;-62
2021/07/29 03:06:49;;;;;;;;;;;;;;;23.81;66.26;96476.55;221843;261;175776;-60
2021/07/29 03:07:50;;;;;;;;;;;;;;;23.81;66.29;96477.94;221959;262;99451;-62
2021/07/29 03:08:51;;;;;;;;;;;;;;;23.84;66.34;96479.42;222180;261;98933;-59
2021/07/29 03:09:53;;;;;;;;;;;;;;;23.83;66.28;96482.55;222742;261;98949;-59
2021/07/29 03:10:57;;;;;;;;;;;;;;;23.84;66.20;96482.77;222434;261;98953;-60
2021/07/29 03:11:57;;;;;;;;;;;;;;;23.85;66.01;96482.41;222900;260;233929;-60
2021/07/29 03:13:01;;;;;;;;;;;;;;;23.83;66.02;96477.02;223409;260;177790;-60
2021/07/29 03:14:01;;;;;;;;;;;;;;;23.82;65.83;96478.98;222219;261;145904;-59
2021/07/29 03:15:03;;;;;;;;;;;;;;;23.84;65.85;96483.57;221858;262;98953;-58
2021/07/29 03:16:04;;;;;;;;;;;;;;;23.77;65.34;96479.25;221644;261;98949;-58
2021/07/29 03:17:05;;;;;;;;;;;;;;;23.79;65.73;96478.88;223616;260;98936;-60
2021/07/29 03:18:07;;;;;;;;;;;;;;;23.77;65.85;96473.72;223017;261;98846;-59
2021/07/29 03:19:08;;;;;;;;;;;;;;;23.79;65.67;96477.50;222920;260;99416;-57
2021/07/29 03:20:09;;;;;;;;;;;;;;;23.82;65.86;96480.92;221862;262;178031;-59
2021/07/29 03:21:10;;;;;;;;;;;;;;;23.81;65.68;96480.70;221977;261;175937;-60
2021/07/29 03:22:12;;;;;;;;;;;;;;;23.81;65.85;96479.31;223446;260;97982;-58
2021/07/29 03:23:15;;;;;;;;;;;;;;;23.81;65.66;96481.50;222392;261;98949;-60
2021/07/29 03:24:16;;;;;;;;;;;;;;;23.82;65.63;96484.52;223063;260;98969;-57
2021/07/29 03:25:17;;;;;;;;;;;;;;;23.78;65.69;96479.47;222533;261;99435;-59
2021/07/29 03:26:18;;;;;;;;;;;;;;;23.75;65.56;96476.05;223008;261;264017;-60
2021/07/29 03:27:20;;;;;;;;;;;;;;;23.63;65.66;96474.20;222941;261;176944;-59
2021/07/29 03:28:21;;;;;;;;;;;;;;;23.66;65.94;96477.63;222870;261;174156;-59
2021/07/29 03:29:27;;;;;;;;;;;;;;;23.57;65.60;96474.22;222605;261;97953;-57
2021/07/29 03:30:25;;;;;;;;;;;;;;;23.58;65.64;96477.23;222521;261;67431;-59
2021/07/29 03:31:27;;;;;;;;;;;;;;;23.62;65.84;96482.28;222610;261;99448;-58
2021/07/29 03:32:28;;;;;;;;;;;;;;;23.58;65.75;96480.00;222917;261;172688;-59
2021/07/29 03:33:29;;;;;;;;;;;;;;;23.55;65.85;96482.08;222347;261;262762;-60
2021/07/29 03:34:31;;;;;;;;;;;;;;;23.58;65.74;96476.40;222429;262;175988;-56
2021/07/29 03:35:32;;;;;;;;;;;;;;;23.55;65.89;96472.39;222499;261;174162;-59
2021/07/29 03:36:35;;;;;;;;;;;;;;;23.41;66.06;96479.56;222661;261;70508;-57
2021/07/29 03:37:37;;;;;;;;;;;;;;;23.46;66.11;96474.55;222534;262;97876;-59
2021/07/29 03:38:38;;;;;;;;;;;;;;;23.46;66.04;96474.55;222697;262;98013;-58
2021/07/29 03:39:39;;;;;;;;;;;;;;;23.52;65.89;96477.86;222435;262;172534;-57
2021/07/29 03:40:40;;;;;;;;;;;;;;;23.45;65.95;96474.91;221860;261;263347;-56
2021/07/29 03:41:42;;;;;;;;;;;;;;;23.45;65.96;96474.33;221735;262;175905;-57
2021/07/29 03:42:43;;;;;;;;;;;;;;;23.43;66.07;96481.39;223205;260;175435;-60
2021/07/29 03:43:44;;;;;;;;;;;;;;;23.27;66.46;96473.89;221051;262;99502;-58
2021/07/29 03:44:46;;;;;;;;;;;;;;;23.20;66.75;96477.08;222568;261;98938;-58
2021/07/29 03:45:47;;;;;;;;;;;;;;;23.20;66.73;96481.23;222113;262;99430;-59
2021/07/29 03:46:48;;;;;;;;;;;;;;;23.21;66.67;96480.06;222917;260;99002;-58
2021/07/29 03:47:50;;;;;;;;;;;;;;;23.13;66.90;96475.52;222876;261;98937;-60
2021/07/29 03:48:51;;;;;;;;;;;;;;;23.17;66.86;96486.06;222765;261;177814;-56
2021/07/29 03:49:52;;;;;;;;;;;;;;;23.21;66.72;96482.25;222679;261;176349;-60
2021/07/29 03:50:54;;;;;;;;;;;;;;;23.22;66.77;96483.84;223510;260;97959;-57
2021/07/29 03:51:57;;;;;;;;;;;;;;;23.28;66.58;96484.37;222610;261;98023;-59
2021/07/29 03:52:58;;;;;;;;;;;;;;;23.29;66.53;96488.77;222388;261;98926;-59
2021/07/29 03:54:00;;;;;;;;;;;;;;;23.27;66.64;96484.95;223009;261;174543;-59
2021/07/29 03:55:01;;;;;;;;;;;;;;;23.28;66.58;96488.52;222809;261;262827;-61
2021/07/29 03:56:02;;;;;;;;;;;;;;;23.23;66.74;96481.89;223051;261;175959;-57
2021/07/29 03:57:04;;;;;;;;;;;;;;;23.19;66.89;96486.54;222721;261;174309;-55
2021/07/29 03:58:05;;;;;;;;;;;;;;;23.21;66.84;96481.45;222711;261;98015;-56
2021/07/29 03:59:06;;;;;;;;;;;;;;;23.23;66.78;96490.98;222535;262;97059;-59
2021/07/29 04:00:08;;;;;;;;;;;;;;;23.12;67.07;96494.64;223064;261;98860;-55
2021/07/29 04:01:11;;;;;;;;;;;;;;;23.15;66.99;96491.16;222580;261;145629;-58
2021/07/29 04:02:12;;;;;;;;;;;;;;;23.09;67.16;96484.53;222343;261;264143;-55
2021/07/29 04:03:14;;;;;;;;;;;;;;;23.03;67.49;96494.23;222754;261;177851;-57
2021/07/29 04:04:15;;;;;;;;;;;;;;;23.04;67.45;96498.59;222911;261;176314;-59
2021/07/29 04:05:16;;;;;;;;;;;;;;;23.11;67.34;96489.70;222920;261;99070;-70
2021/07/29 04:06:18;;;;;;;;;;;;;;;23.21;67.35;96480.87;222445;261;98941;-67
2021/07/29 04:07:19;;;;;;;;;;;;;;;23.29;67.08;96483.23;223819;260;98944;-67
2021/07/29 04:08:20;;;;;;;;;;;;;;;23.33;66.96;96485.49;220909;261;98047;-68
2021/07/29 04:09:22;;;;;;;;;;;;;;;23.34;66.82;96488.48;221318;263;98051;-71
2021/07/29 04:10:23;;;;;;;;;;;;;;;23.34;66.71;96486.52;222408;260;175930;-67
2021/07/29 04:11:24;;;;;;;;;;;;;;;23.33;66.68;96479.97;222635;260;174347;-70
2021/07/29 04:12:26;;;;;;;;;;;;;;;23.32;66.76;96488.05;221987;262;98937;-74
2021/07/29 04:13:27;;;;;;;;;;;;;;;23.34;66.79;96486.52;221872;262;98990;-71
2021/07/29 04:14:28;;;;;;;;;;;;;;;23.32;66.86;96489.42;223301;260;99077;-69
2021/07/29 04:15:30;;;;;;;;;;;;;;;23.31;66.89;96485.06;222363;261;98861;-70
2021/07/29 04:16:31;;;;;;;;;;;;;;;23.30;66.86;96478.72;223760;260;97584;-70
2021/07/29 04:17:32;;;;;;;;;;;;;;;23.31;66.81;96480.91;221958;261;176102;-66
2021/07/29 04:18:35;;;;;;;;;;;;;;;23.31;66.78;96487.82;223309;260;174280;-67
2021/07/29 04:19:37;;;;;;;;;;;;;;;23.31;66.79;96483.67;222354;261;70379;-71
2021/07/29 04:20:38;;;;;;;;;;;;;;;23.34;66.75;96488.48;221974;262;98933;-67
2021/07/29 04:21:39;;;;;;;;;;;;;;;23.25;67.50;96495.57;223418;260;98109;-66
2021/07/29 04:22:41;;;;;;;;;;;;;;;23.31;67.00;96491.97;223049;260;172728;-65
2021/07/29 04:23:42;;;;;;;;;;;;;;;23.32;66.86;96488.84;222090;261;260608;-67
2021/07/29 04:24:44;;;;;;;;;;;;;;;23.36;66.86;96495.83;222817;261;177807;-66
2021/07/29 04:25:47;;;;;;;;;;;;;;;23.40;66.81;96491.79;223044;261;148773;-67
2021/07/29 04:26:48;;;;;;;;;;;;;;;23.40;66.76;96493.98;223250;260;98956;-67
2021/07/29 04:27:49;;;;;;;;;;;;;;;23.40;66.75;96489.83;222845;260;98937;-67
2021/07/29 04:28:51;;;;;;;;;;;;;;;23.44;66.69;96495.43;224309;259;98953;-67
2021/07/29 04:29:52;;;;;;;;;;;;;;;23.40;67.44;96495.36;222179;260;98962;-68
2021/07/29 04:30:53;;;;;;;;;;;;;;;23.42;66.82;96492.23;223226;260;98933;-67
2021/07/29 04:31:55;;;;;;;;;;;;;;;23.23;69.55;96490.19;221853;262;177853;-67
2021/07/29 04:32:56;;;;;;;;;;;;;;;23.20;70.20;96488.94;222680;260;177957;-69
2021/07/29 04:34:00;;;;;;;;;;;;;;;23.24;68.83;96491.20;222405;261;99436;-66
2021/07/29 04:35:02;;;;;;;;;;;;;;;23.39;67.25;96495.11;222644;260;99090;-67
2021/07/29 04:36:03;;;;;;;;;;;;;;;23.40;67.33;96496.74;223392;260;98935;-68
2021/07/29 04:37:04;;;;;;;;;;;;;;;23.43;67.08;96497.40;222000;261;98942;-68
2021/07/29 04:38:06;;;;;;;;;;;;;;;23.44;68.15;96493.47;222439;261;99445;-68
2021/07/29 04:39:07;;;;;;;;;;;;;;;23.41;67.17;96490.05;222616;261;98926;-68
2021/07/29 04:40:10;;;;;;;;;;;;;;;23.47;66.92;96497.47;222241;261;261945;-68
2021/07/29 04:41:11;;;;;;;;;;;;;;;23.36;70.97;96498.02;222479;261;177661;-68
2021/07/29 04:42:12;;;;;;;;;;;;;;;23.26;68.92;96490.84;222433;261;176234;-65
2021/07/29 04:43:14;;;;;;;;;;;;;;;23.28;68.37;96489.89;222479;261;98909;-68
2021/07/29 04:44:15;;;;;;;;;;;;;;;23.37;67.39;96494.09;222581;261;98970;-70
2021/07/29 04:45:16;;;;;;;;;;;;;;;23.45;67.14;96495.07;222582;261;98945;-62
2021/07/29 04:46:18;;;;;;;;;;;;;;;23.57;66.86;96501.87;223761;260;98960;-59
2021/07/29 04:47:19;;;;;;;;;;;;;;;23.60;66.66;96502.56;223952;260;98968;-61
2021/07/29 04:48:20;;;;;;;;;;;;;;;23.60;66.70;96497.61;222692;260;176829;-61
2021/07/29 04:49:23;;;;;;;;;;;;;;;23.64;66.61;96494.37;221470;262;173942;-61
2021/07/29 04:50:25;;;;;;;;;;;;;;;23.69;66.34;96498.81;222494;262;98954;-57
2021/07/29 04:51:26;;;;;;;;;;;;;;;23.72;66.24;96491.20;221934;262;98969;-58
2021/07/29 04:52:28;;;;;;;;;;;;;;;23.71;66.04;96495.09;223098;261;97975;-58
2021/07/29 04:53:29;;;;;;;;;;;;;;;23.74;66.24;96493.02;222242;260;174729;-58
2021/07/29 04:54:30;;;;;;;;;;;;;;;23.76;66.09;96496.22;221693;262;266442;-58
2021/07/29 04:55:32;;;;;;;;;;;;;;;23.74;66.12;96492.43;222957;260;177841;-60
2021/07/29 04:56:33;;;;;;;;;;;;;;;23.77;66.04;96492.28;222512;260;176143;-59
2021/07/29 04:57:34;;;;;;;;;;;;;;;23.75;65.97;96494.03;221503;263;99074;-56
2021/07/29 04:58:36;;;;;;;;;;;;;;;23.79;65.92;96492.72;221127;261;97924;-57
2021/07/29 04:59:41;;;;;;;;;;;;;;;23.72;65.94;96499.50;223675;259;97434;-59
2021/07/29 05:00:42;;;;;;;;;;;;;;;23.76;65.84;96490.69;222982;260;147014;-56
2021/07/29 05:01:43;;;;;;;;;;;;;;;23.71;65.82;96502.02;222946;260;264231;-59
2021/07/29 05:02:45;;;;;;;;;;;;;;;23.63;65.82;96494.15;222467;260;177121;-59
2021/07/29 05:03:46;;;;;;;;;;;;;;;23.68;65.97;96504.13;223358;260;175303;-59
2021/07/29 05:04:47;;;;;;;;;;;;;;;23.62;65.70;96498.88;221961;262;98874;-59
2021/07/29 05:05:49;;;;;;;;;;;;;;;23.59;66.01;96498.20;223009;260;98948;-60
2021/07/29 05:06:50;;;;;;;;;;;;;;;23.65;65.89;96498.73;222601;261;98955;-60
2021/07/29 05:07:54;;;;;;;;;;;;;;;23.63;65.85;96494.15;223509;260;98936;-61
2021/07/29 05:08:56;;;;;;;;;;;;;;;23.60;65.99;96491.50;221913;261;263069;-60
2021/07/29 05:09:57;;;;;;;;;;;;;;;23.48;65.87;96491.58;223461;260;177796;-61
2021/07/29 05:10:58;;;;;;;;;;;;;;;23.54;65.92;96495.69;222322;261;176130;-63
2021/07/29 05:12:00;;;;;;;;;;;;;;;23.54;65.93;96490.16;223086;260;98960;-60
2021/07/29 05:13:01;;;;;;;;;;;;;;;23.53;65.91;96493.28;221936;262;100219;-61
2021/07/29 05:14:02;;;;;;;;;;;;;;;23.56;65.97;96497.51;223548;260;99435;-64
2021/07/29 05:15:04;;;;;;;;;;;;;;;23.51;65.81;96492.27;222454;261;98860;-61
2021/07/29 05:16:05;;;;;;;;;;;;;;;23.42;66.15;96484.73;223097;260;97972;-62
2021/07/29 05:17:07;;;;;;;;;;;;;;;23.43;66.20;96491.87;223772;260;177350;-56
2021/07/29 05:18:08;;;;;;;;;;;;;;;23.33;66.22;96491.02;222586;260;175624;-60
2021/07/29 05:19:09;;;;;;;;;;;;;;;23.36;66.31;96493.87;222832;260;98816;-60
2021/07/29 05:20:10;;;;;;;;;;;;;;;23.34;66.25;96488.48;223275;260;99113;-61
2021/07/29 05:21:12;;;;;;;;;;;;;;;23.26;66.40;96488.88;222695;260;98772;-59